Alzada, Montana
Current Conditions -  °F | °C
As of 3:55 PM on Monday 24 Nov 2014 (Local Time) from KSPF Reporting Station
Haze Haze  
Wind Chill: 21°   Ceiling: 4000
Heat Index: 30°   Visibility: 1.5mi
Dew Point: 25°   Wind: 12mph
Humidity: 80%   Direction: 290°WNW
Pressure: 30.05"   Gusts: 16mph
Location:  45.03°N, 104.42°W
Report Text: KSPF 242255Z AUTO 29010G14KT 1 1/2SM HZ SCT021 BKN040 OVC060 M01/M04 A3005 RMK AO2
Loading
Personal Weather Stations






























Interactive Weather Map New forecast layout! Learn more

10-Day Weather Forecast

Advertisements
Track Severe Weather on mobile